sensor_id;sensor_type;location;lat;lon;timestamp;P1;durP1;ratioP1;P2;durP2;ratioP2
45103;SDS011;30865;51.288;4.572;2023-04-01T00:00:51;1.65;;;0.30;;
45103;SDS011;30865;51.288;4.572;2023-04-01T00:03:17;4.05;;;0.47;;
45103;SDS011;30865;51.288;4.572;2023-04-01T00:05:44;3.05;;;0.57;;
45103;SDS011;30865;51.288;4.572;2023-04-01T00:08:10;2.30;;;0.20;;
45103;SDS011;30865;51.288;4.572;2023-04-01T00:10:36;1.15;;;0.30;;
45103;SDS011;30865;51.288;4.572;2023-04-01T00:13:01;2.30;;;0.43;;
45103;SDS011;30865;51.288;4.572;2023-04-01T00:15:27;0.90;;;0.30;;
45103;SDS011;30865;51.288;4.572;2023-04-01T00:17:53;1.58;;;0.60;;
45103;SDS011;30865;51.288;4.572;2023-04-01T00:20:19;2.45;;;0.47;;
45103;SDS011;30865;51.288;4.572;2023-04-01T00:22:44;2.58;;;0.50;;
45103;SDS011;30865;51.288;4.572;2023-04-01T00:25:10;2.05;;;0.30;;
45103;SDS011;30865;51.288;4.572;2023-04-01T00:27:36;2.80;;;0.50;;
45103;SDS011;30865;51.288;4.572;2023-04-01T00:30:02;2.03;;;0.40;;
45103;SDS011;30865;51.288;4.572;2023-04-01T00:32:28;2.15;;;0.38;;
45103;SDS011;30865;51.288;4.572;2023-04-01T00:34:55;3.30;;;0.60;;
45103;SDS011;30865;51.288;4.572;2023-04-01T00:37:21;3.65;;;0.63;;
45103;SDS011;30865;51.288;4.572;2023-04-01T00:39:47;4.65;;;0.65;;
45103;SDS011;30865;51.288;4.572;2023-04-01T00:42:13;3.53;;;0.40;;
45103;SDS011;30865;51.288;4.572;2023-04-01T00:44:39;0.60;;;0.50;;
45103;SDS011;30865;51.288;4.572;2023-04-01T00:47:05;2.05;;;0.47;;
45103;SDS011;30865;51.288;4.572;2023-04-01T00:49:32;1.88;;;0.57;;
45103;SDS011;30865;51.288;4.572;2023-04-01T00:52:02;3.75;;;0.70;;
45103;SDS011;30865;51.288;4.572;2023-04-01T00:54:30;1.50;;;0.30;;
45103;SDS011;30865;51.288;4.572;2023-04-01T00:56:58;0.65;;;0.50;;
45103;SDS011;30865;51.288;4.572;2023-04-01T00:59:34;5.38;;;1.42;;
45103;SDS011;30865;51.288;4.572;2023-04-01T01:02:04;3.13;;;0.70;;
45103;SDS011;30865;51.288;4.572;2023-04-01T01:04:33;2.70;;;0.80;;
45103;SDS011;30865;51.288;4.572;2023-04-01T01:10:08;0.28;;;0.20;;
45103;SDS011;30865;51.288;4.572;2023-04-01T01:15:37;3.00;;;0.40;;
45103;SDS011;30865;51.288;4.572;2023-04-01T01:37:10;1.55;;;0.55;;
45103;SDS011;30865;51.288;4.572;2023-04-01T01:39:43;2.75;;;0.40;;
45103;SDS011;30865;51.288;4.572;2023-04-01T01:42:13;2.17;;;0.65;;
45103;SDS011;30865;51.288;4.572;2023-04-01T01:44:41;1.02;;;0.43;;
45103;SDS011;30865;51.288;4.572;2023-04-01T01:47:11;1.38;;;0.20;;
45103;SDS011;30865;51.288;4.572;2023-04-01T01:49:38;3.13;;;0.60;;
45103;SDS011;30865;51.288;4.572;2023-04-01T01:52:05;1.45;;;0.40;;
45103;SDS011;30865;51.288;4.572;2023-04-01T01:54:31;3.78;;;0.60;;
45103;SDS011;30865;51.288;4.572;2023-04-01T01:57:01;1.60;;;0.47;;
45103;SDS011;30865;51.288;4.572;2023-04-01T01:59:31;1.10;;;0.10;;
45103;SDS011;30865;51.288;4.572;2023-04-01T02:02:00;3.20;;;0.60;;
45103;SDS011;30865;51.288;4.572;2023-04-01T02:04:32;2.78;;;0.60;;
45103;SDS011;30865;51.288;4.572;2023-04-01T02:07:02;0.50;;;0.50;;
45103;SDS011;30865;51.288;4.572;2023-04-01T02:11:59;2.85;;;0.30;;
45103;SDS011;30865;51.288;4.572;2023-04-01T02:14:30;0.93;;;0.43;;
45103;SDS011;30865;51.288;4.572;2023-04-01T02:17:07;1.75;;;0.20;;
45103;SDS011;30865;51.288;4.572;2023-04-01T02:19:41;1.73;;;0.50;;
45103;SDS011;30865;51.288;4.572;2023-04-01T02:22:13;3.25;;;0.50;;
45103;SDS011;30865;51.288;4.572;2023-04-01T02:24:42;2.63;;;0.32;;
45103;SDS011;30865;51.288;4.572;2023-04-01T02:27:10;3.03;;;0.95;;
45103;SDS011;30865;51.288;4.572;2023-04-01T02:29:36;3.05;;;0.60;;
45103;SDS011;30865;51.288;4.572;2023-04-01T02:32:03;1.10;;;0.30;;
45103;SDS011;30865;51.288;4.572;2023-04-01T02:34:30;1.50;;;0.20;;
45103;SDS011;30865;51.288;4.572;2023-04-01T02:36:56;0.20;;;0.20;;
45103;SDS011;30865;51.288;4.572;2023-04-01T02:39:22;2.05;;;0.17;;
45103;SDS011;30865;51.288;4.572;2023-04-01T02:41:47;0.63;;;0.20;;
45103;SDS011;30865;51.288;4.572;2023-04-01T02:44:13;1.42;;;0.32;;
45103;SDS011;30865;51.288;4.572;2023-04-01T02:46:40;1.20;;;0.28;;
45103;SDS011;30865;51.288;4.572;2023-04-01T02:49:05;0.90;;;0.10;;
45103;SDS011;30865;51.288;4.572;2023-04-01T02:51:31;0.10;;;0.10;;
45103;SDS011;30865;51.288;4.572;2023-04-01T02:53:57;0.90;;;0.20;;
45103;SDS011;30865;51.288;4.572;2023-04-01T02:56:23;4.03;;;0.60;;
45103;SDS011;30865;51.288;4.572;2023-04-01T02:58:48;0.38;;;0.32;;
45103;SDS011;30865;51.288;4.572;2023-04-01T03:07:58;5.65;;;0.70;;
45103;SDS011;30865;51.288;4.572;2023-04-01T03:10:24;0.28;;;0.10;;
45103;SDS011;30865;51.288;4.572;2023-04-01T03:12:49;0.00;;;0.00;;
45103;SDS011;30865;51.288;4.572;2023-04-01T03:15:15;2.20;;;0.25;;
45103;SDS011;30865;51.288;4.572;2023-04-01T03:17:41;2.67;;;0.20;;
45103;SDS011;30865;51.288;4.572;2023-04-01T03:20:07;0.93;;;0.20;;
45103;SDS011;30865;51.288;4.572;2023-04-01T03:22:34;1.35;;;0.20;;
45103;SDS011;30865;51.288;4.572;2023-04-01T03:25:00;1.10;;;0.10;;
45103;SDS011;30865;51.288;4.572;2023-04-01T03:27:26;1.23;;;0.15;;
45103;SDS011;30865;51.288;4.572;2023-04-01T03:29:52;2.10;;;0.10;;
45103;SDS011;30865;51.288;4.572;2023-04-01T03:32:17;0.73;;;0.10;;
45103;SDS011;30865;51.288;4.572;2023-04-01T03:34:42;1.23;;;0.30;;
45103;SDS011;30865;51.288;4.572;2023-04-01T03:37:08;1.33;;;0.20;;
45103;SDS011;30865;51.288;4.572;2023-04-01T03:39:33;0.88;;;0.20;;
45103;SDS011;30865;51.288;4.572;2023-04-01T03:41:59;1.15;;;0.28;;
45103;SDS011;30865;51.288;4.572;2023-04-01T03:44:25;0.75;;;0.20;;
45103;SDS011;30865;51.288;4.572;2023-04-01T03:46:51;1.10;;;0.55;;
45103;SDS011;30865;51.288;4.572;2023-04-01T03:49:16;1.05;;;0.43;;
45103;SDS011;30865;51.288;4.572;2023-04-01T03:51:43;1.05;;;0.50;;
45103;SDS011;30865;51.288;4.572;2023-04-01T03:54:09;1.17;;;0.40;;
45103;SDS011;30865;51.288;4.572;2023-04-01T03:56:35;1.63;;;0.30;;
45103;SDS011;30865;51.288;4.572;2023-04-01T03:59:02;4.97;;;0.80;;
45103;SDS011;30865;51.288;4.572;2023-04-01T04:01:29;1.38;;;0.10;;
45103;SDS011;30865;51.288;4.572;2023-04-01T04:03:54;1.77;;;0.50;;
45103;SDS011;30865;51.288;4.572;2023-04-01T04:06:21;1.88;;;0.38;;
45103;SDS011;30865;51.288;4.572;2023-04-01T04:08:47;1.00;;;0.50;;
45103;SDS011;30865;51.288;4.572;2023-04-01T04:11:12;1.45;;;0.30;;
45103;SDS011;30865;51.288;4.572;2023-04-01T04:13:38;0.45;;;0.10;;
45103;SDS011;30865;51.288;4.572;2023-04-01T04:16:04;0.63;;;0.25;;
45103;SDS011;30865;51.288;4.572;2023-04-01T04:18:29;0.20;;;0.20;;
45103;SDS011;30865;51.288;4.572;2023-04-01T04:20:55;0.20;;;0.08;;
45103;SDS011;30865;51.288;4.572;2023-04-01T04:23:21;0.40;;;0.15;;
45103;SDS011;30865;51.288;4.572;2023-04-01T04:25:56;0.00;;;0.00;;
45103;SDS011;30865;51.288;4.572;2023-04-01T04:28:24;2.25;;;0.30;;
45103;SDS011;30865;51.288;4.572;2023-04-01T04:30:51;0.10;;;0.10;;
45103;SDS011;30865;51.288;4.572;2023-04-01T04:33:16;0.68;;;0.20;;
45103;SDS011;30865;51.288;4.572;2023-04-01T04:35:42;2.42;;;0.20;;
45103;SDS011;30865;51.288;4.572;2023-04-01T04:38:08;2.03;;;0.20;;
45103;SDS011;30865;51.288;4.572;2023-04-01T04:40:35;0.82;;;0.20;;
45103;SDS011;30865;51.288;4.572;2023-04-01T04:43:04;0.20;;;0.10;;
45103;SDS011;30865;51.288;4.572;2023-04-01T04:45:30;0.20;;;0.20;;
45103;SDS011;30865;51.288;4.572;2023-04-01T04:47:56;1.08;;;0.22;;
45103;SDS011;30865;51.288;4.572;2023-04-01T04:50:22;0.80;;;0.00;;
45103;SDS011;30865;51.288;4.572;2023-04-01T04:52:48;0.57;;;0.13;;
45103;SDS011;30865;51.288;4.572;2023-04-01T04:55:14;0.10;;;0.10;;
45103;SDS011;30865;51.288;4.572;2023-04-01T04:57:40;0.20;;;0.10;;
45103;SDS011;30865;51.288;4.572;2023-04-01T05:00:06;1.98;;;0.20;;
45103;SDS011;30865;51.288;4.572;2023-04-01T05:02:32;0.43;;;0.43;;
45103;SDS011;30865;51.288;4.572;2023-04-01T05:04:58;0.32;;;0.17;;
45103;SDS011;30865;51.288;4.572;2023-04-01T05:07:23;0.22;;;0.05;;
45103;SDS011;30865;51.288;4.572;2023-04-01T05:09:49;0.40;;;0.30;;
45103;SDS011;30865;51.288;4.572;2023-04-01T05:12:14;0.93;;;0.60;;
45103;SDS011;30865;51.288;4.572;2023-04-01T05:14:40;1.58;;;0.70;;
45103;SDS011;30865;51.288;4.572;2023-04-01T05:17:09;0.52;;;0.43;;
45103;SDS011;30865;51.288;4.572;2023-04-01T05:19:36;2.25;;;1.60;;
45103;SDS011;30865;51.288;4.572;2023-04-01T05:22:01;20.52;;;10.18;;
45103;SDS011;30865;51.288;4.572;2023-04-01T05:24:27;8.15;;;4.25;;
45103;SDS011;30865;51.288;4.572;2023-04-01T05:26:52;6.78;;;2.90;;
45103;SDS011;30865;51.288;4.572;2023-04-01T05:29:18;10.93;;;5.10;;
45103;SDS011;30865;51.288;4.572;2023-04-01T05:31:46;3.72;;;2.28;;
45103;SDS011;30865;51.288;4.572;2023-04-01T05:34:11;9.25;;;5.40;;
45103;SDS011;30865;51.288;4.572;2023-04-01T05:36:38;9.38;;;4.07;;
45103;SDS011;30865;51.288;4.572;2023-04-01T05:39:03;6.45;;;3.40;;
45103;SDS011;30865;51.288;4.572;2023-04-01T05:41:29;14.57;;;4.95;;
45103;SDS011;30865;51.288;4.572;2023-04-01T05:43:54;3.03;;;0.93;;
45103;SDS011;30865;51.288;4.572;2023-04-01T05:46:20;3.80;;;0.70;;
45103;SDS011;30865;51.288;4.572;2023-04-01T05:48:46;2.50;;;0.60;;
45103;SDS011;30865;51.288;4.572;2023-04-01T05:51:15;0.50;;;0.40;;
45103;SDS011;30865;51.288;4.572;2023-04-01T05:53:41;3.08;;;1.25;;
45103;SDS011;30865;51.288;4.572;2023-04-01T05:56:07;4.60;;;1.85;;
45103;SDS011;30865;51.288;4.572;2023-04-01T05:58:34;3.97;;;1.70;;
45103;SDS011;30865;51.288;4.572;2023-04-01T06:01:01;8.25;;;4.70;;
45103;SDS011;30865;51.288;4.572;2023-04-01T06:03:29;12.15;;;5.38;;
45103;SDS011;30865;51.288;4.572;2023-04-01T06:05:55;3.78;;;1.60;;
45103;SDS011;30865;51.288;4.572;2023-04-01T06:08:20;11.10;;;5.88;;
45103;SDS011;30865;51.288;4.572;2023-04-01T06:11:10;3.67;;;2.22;;
45103;SDS011;30865;51.288;4.572;2023-04-01T06:17:04;5.20;;;2.40;;
45103;SDS011;30865;51.288;4.572;2023-04-01T06:30:55;3.78;;;0.95;;
45103;SDS011;30865;51.288;4.572;2023-04-01T06:41:54;3.45;;;1.23;;
45103;SDS011;30865;51.288;4.572;2023-04-01T06:49:44;5.68;;;3.20;;
45103;SDS011;30865;51.288;4.572;2023-04-01T06:54:55;2.75;;;0.77;;
45103;SDS011;30865;51.288;4.572;2023-04-01T06:57:31;1.30;;;0.82;;
45103;SDS011;30865;51.288;4.572;2023-04-01T07:00:04;1.58;;;0.30;;
45103;SDS011;30865;51.288;4.572;2023-04-01T07:05:45;0.20;;;0.20;;
45103;SDS011;30865;51.288;4.572;2023-04-01T07:08:18;2.03;;;0.30;;
45103;SDS011;30865;51.288;4.572;2023-04-01T07:13:36;0.98;;;0.50;;
45103;SDS011;30865;51.288;4.572;2023-04-01T07:16:15;1.77;;;0.25;;
45103;SDS011;30865;51.288;4.572;2023-04-01T07:18:50;3.10;;;0.90;;
45103;SDS011;30865;51.288;4.572;2023-04-01T07:24:02;6.53;;;1.02;;
45103;SDS011;30865;51.288;4.572;2023-04-01T07:26:31;0.75;;;0.30;;
45103;SDS011;30865;51.288;4.572;2023-04-01T07:28:57;0.90;;;0.20;;
45103;SDS011;30865;51.288;4.572;2023-04-01T07:39:43;1.35;;;0.20;;
45103;SDS011;30865;51.288;4.572;2023-04-01T07:42:39;1.70;;;0.17;;
45103;SDS011;30865;51.288;4.572;2023-04-01T07:45:23;2.00;;;0.25;;
45103;SDS011;30865;51.288;4.572;2023-04-01T07:53:15;5.53;;;3.13;;
45103;SDS011;30865;51.288;4.572;2023-04-01T07:56:05;1.20;;;0.77;;
45103;SDS011;30865;51.288;4.572;2023-04-01T08:03:51;2.78;;;0.95;;
45103;SDS011;30865;51.288;4.572;2023-04-01T08:06:25;0.90;;;0.68;;
45103;SDS011;30865;51.288;4.572;2023-04-01T08:12:11;2.17;;;1.10;;
45103;SDS011;30865;51.288;4.572;2023-04-01T08:14:55;1.27;;;0.40;;
45103;SDS011;30865;51.288;4.572;2023-04-01T08:17:32;2.05;;;0.30;;
45103;SDS011;30865;51.288;4.572;2023-04-01T08:23:06;3.33;;;0.40;;
45103;SDS011;30865;51.288;4.572;2023-04-01T08:25:37;1.10;;;0.52;;
45103;SDS011;30865;51.288;4.572;2023-04-01T08:28:15;1.63;;;0.30;;
45103;SDS011;30865;51.288;4.572;2023-04-01T08:30:53;1.10;;;0.45;;
45103;SDS011;30865;51.288;4.572;2023-04-01T08:33:28;1.52;;;0.60;;
45103;SDS011;30865;51.288;4.572;2023-04-01T08:36:02;1.33;;;0.28;;
45103;SDS011;30865;51.288;4.572;2023-04-01T08:38:40;3.13;;;0.45;;
45103;SDS011;30865;51.288;4.572;2023-04-01T08:43:49;1.08;;;0.40;;
45103;SDS011;30865;51.288;4.572;2023-04-01T08:46:54;1.48;;;0.35;;
45103;SDS011;30865;51.288;4.572;2023-04-01T08:49:41;0.77;;;0.20;;
45103;SDS011;30865;51.288;4.572;2023-04-01T09:00:57;1.20;;;0.60;;
45103;SDS011;30865;51.288;4.572;2023-04-01T09:09:05;0.57;;;0.28;;
45103;SDS011;30865;51.288;4.572;2023-04-01T09:20:17;1.10;;;0.60;;
45103;SDS011;30865;51.288;4.572;2023-04-01T09:23:02;1.75;;;0.55;;
45103;SDS011;30865;51.288;4.572;2023-04-01T09:31:45;0.57;;;0.15;;
45103;SDS011;30865;51.288;4.572;2023-04-01T09:37:17;0.30;;;0.20;;
45103;SDS011;30865;51.288;4.572;2023-04-01T09:45:34;0.32;;;0.25;;
45103;SDS011;30865;51.288;4.572;2023-04-01T09:48:14;0.75;;;0.50;;
45103;SDS011;30865;51.288;4.572;2023-04-01T09:51:17;0.35;;;0.20;;
45103;SDS011;30865;51.288;4.572;2023-04-01T09:54:11;0.38;;;0.20;;
45103;SDS011;30865;51.288;4.572;2023-04-01T10:25:45;0.10;;;0.10;;
45103;SDS011;30865;51.288;4.572;2023-04-01T10:43:07;0.10;;;0.10;;
45103;SDS011;30865;51.288;4.572;2023-04-01T10:48:36;0.28;;;0.10;;
45103;SDS011;30865;51.288;4.572;2023-04-01T10:54:09;2.28;;;0.10;;
45103;SDS011;30865;51.288;4.572;2023-04-01T10:57:08;0.10;;;0.10;;
45103;SDS011;30865;51.288;4.572;2023-04-01T11:06:11;0.10;;;0.00;;
45103;SDS011;30865;51.288;4.572;2023-04-01T11:14:33;0.00;;;0.00;;
45103;SDS011;30865;51.288;4.572;2023-04-01T11:17:26;0.47;;;0.20;;
45103;SDS011;30865;51.288;4.572;2023-04-01T11:39:24;0.30;;;0.10;;
45103;SDS011;30865;51.288;4.572;2023-04-01T11:44:57;0.15;;;0.10;;
45103;SDS011;30865;51.288;4.572;2023-04-01T11:47:45;0.45;;;0.20;;
45103;SDS011;30865;51.288;4.572;2023-04-01T11:50:21;0.10;;;0.10;;
45103;SDS011;30865;51.288;4.572;2023-04-01T11:53:19;0.15;;;0.00;;
45103;SDS011;30865;51.288;4.572;2023-04-01T12:02:11;0.13;;;0.00;;
45103;SDS011;30865;51.288;4.572;2023-04-01T12:05:10;0.10;;;0.10;;
45103;SDS011;30865;51.288;4.572;2023-04-01T12:08:01;1.45;;;0.20;;
45103;SDS011;30865;51.288;4.572;2023-04-01T12:16:47;0.10;;;0.10;;
45103;SDS011;30865;51.288;4.572;2023-04-01T12:28:12;0.52;;;0.10;;
45103;SDS011;30865;51.288;4.572;2023-04-01T12:33:25;0.22;;;0.10;;
45103;SDS011;30865;51.288;4.572;2023-04-01T12:38:43;0.00;;;0.00;;
45103;SDS011;30865;51.288;4.572;2023-04-01T12:41:30;0.08;;;0.00;;
45103;SDS011;30865;51.288;4.572;2023-04-01T12:44:16;0.00;;;0.00;;
45103;SDS011;30865;51.288;4.572;2023-04-01T12:46:58;0.00;;;0.00;;
45103;SDS011;30865;51.288;4.572;2023-04-01T12:49:56;0.08;;;0.08;;
45103;SDS011;30865;51.288;4.572;2023-04-01T12:55:45;0.32;;;0.10;;
45103;SDS011;30865;51.288;4.572;2023-04-01T13:04:19;0.10;;;0.08;;
45103;SDS011;30865;51.288;4.572;2023-04-01T13:18:12;0.57;;;0.10;;
45103;SDS011;30865;51.288;4.572;2023-04-01T13:26:28;0.05;;;0.05;;
45103;SDS011;30865;51.288;4.572;2023-04-01T13:29:13;0.08;;;0.08;;
45103;SDS011;30865;51.288;4.572;2023-04-01T13:34:33;0.00;;;0.00;;
45103;SDS011;30865;51.288;4.572;2023-04-01T13:39:39;0.00;;;0.00;;
45103;SDS011;30865;51.288;4.572;2023-04-01T13:42:11;0.38;;;0.10;;
45103;SDS011;30865;51.288;4.572;2023-04-01T13:52:50;0.17;;;0.15;;
45103;SDS011;30865;51.288;4.572;2023-04-01T13:55:53;0.10;;;0.00;;
45103;SDS011;30865;51.288;4.572;2023-04-01T13:58:43;0.00;;;0.00;;
45103;SDS011;30865;51.288;4.572;2023-04-01T14:04:18;0.00;;;0.00;;
45103;SDS011;30865;51.288;4.572;2023-04-01T14:07:00;0.03;;;0.03;;
45103;SDS011;30865;51.288;4.572;2023-04-01T14:12:58;0.43;;;0.00;;
45103;SDS011;30865;51.288;4.572;2023-04-01T14:23:45;0.10;;;0.10;;
45103;SDS011;30865;51.288;4.572;2023-04-01T14:34:52;0.00;;;0.00;;
45103;SDS011;30865;51.288;4.572;2023-04-01T14:40:33;0.30;;;0.10;;
45103;SDS011;30865;51.288;4.572;2023-04-01T14:51:28;0.20;;;0.13;;
45103;SDS011;30865;51.288;4.572;2023-04-01T14:54:04;0.10;;;0.08;;
45103;SDS011;30865;51.288;4.572;2023-04-01T14:56:48;0.10;;;0.10;;
45103;SDS011;30865;51.288;4.572;2023-04-01T15:10:14;0.13;;;0.13;;
45103;SDS011;30865;51.288;4.572;2023-04-01T15:13:18;0.43;;;0.10;;
45103;SDS011;30865;51.288;4.572;2023-04-01T15:19:04;0.25;;;0.10;;
45103;SDS011;30865;51.288;4.572;2023-04-01T15:29:51;0.22;;;0.10;;
45103;SDS011;30865;51.288;4.572;2023-04-01T15:35:20;0.17;;;0.10;;
45103;SDS011;30865;51.288;4.572;2023-04-01T15:38:20;0.10;;;0.10;;
45103;SDS011;30865;51.288;4.572;2023-04-01T15:43:41;0.00;;;0.00;;
45103;SDS011;30865;51.288;4.572;2023-04-01T15:46:39;0.10;;;0.10;;
45103;SDS011;30865;51.288;4.572;2023-04-01T15:52:06;0.20;;;0.20;;
45103;SDS011;30865;51.288;4.572;2023-04-01T16:01:03;0.10;;;0.10;;
45103;SDS011;30865;51.288;4.572;2023-04-01T16:03:43;0.10;;;0.10;;
45103;SDS011;30865;51.288;4.572;2023-04-01T16:06:26;0.08;;;0.08;;
45103;SDS011;30865;51.288;4.572;2023-04-01T16:12:11;0.40;;;0.20;;
45103;SDS011;30865;51.288;4.572;2023-04-01T16:15:00;0.40;;;0.17;;
45103;SDS011;30865;51.288;4.572;2023-04-01T16:17:51;0.00;;;0.00;;
45103;SDS011;30865;51.288;4.572;2023-04-01T16:20:39;0.13;;;0.10;;
45103;SDS011;30865;51.288;4.572;2023-04-01T16:23:34;0.10;;;0.10;;
45103;SDS011;30865;51.288;4.572;2023-04-01T16:28:57;0.50;;;0.20;;
45103;SDS011;30865;51.288;4.572;2023-04-01T16:31:35;0.05;;;0.00;;
45103;SDS011;30865;51.288;4.572;2023-04-01T16:37:05;0.30;;;0.30;;
45103;SDS011;30865;51.288;4.572;2023-04-01T16:45:30;0.30;;;0.20;;
45103;SDS011;30865;51.288;4.572;2023-04-01T16:50:59;0.60;;;0.35;;
45103;SDS011;30865;51.288;4.572;2023-04-01T16:53:45;0.30;;;0.20;;
45103;SDS011;30865;51.288;4.572;2023-04-01T16:56:28;0.20;;;0.20;;
45103;SDS011;30865;51.288;4.572;2023-04-01T16:59:14;0.10;;;0.10;;
45103;SDS011;30865;51.288;4.572;2023-04-01T17:02:02;0.20;;;0.17;;
45103;SDS011;30865;51.288;4.572;2023-04-01T17:10:19;0.82;;;0.45;;
45103;SDS011;30865;51.288;4.572;2023-04-01T17:24:13;0.30;;;0.10;;
45103;SDS011;30865;51.288;4.572;2023-04-01T17:35:35;2.10;;;0.50;;
45103;SDS011;30865;51.288;4.572;2023-04-01T17:40:57;0.85;;;0.50;;
45103;SDS011;30865;51.288;4.572;2023-04-01T17:46:30;0.75;;;0.50;;
45103;SDS011;30865;51.288;4.572;2023-04-01T17:54:55;0.40;;;0.38;;
45103;SDS011;30865;51.288;4.572;2023-04-01T18:02:57;0.80;;;0.50;;
45103;SDS011;30865;51.288;4.572;2023-04-01T18:06:00;2.25;;;0.57;;
45103;SDS011;30865;51.288;4.572;2023-04-01T18:17:09;0.85;;;0.20;;
45103;SDS011;30865;51.288;4.572;2023-04-01T18:19:54;0.70;;;0.40;;
45103;SDS011;30865;51.288;4.572;2023-04-01T18:22:26;0.60;;;0.40;;
45103;SDS011;30865;51.288;4.572;2023-04-01T18:25:01;0.50;;;0.50;;
45103;SDS011;30865;51.288;4.572;2023-04-01T18:27:50;0.93;;;0.60;;
45103;SDS011;30865;51.288;4.572;2023-04-01T18:30:37;1.30;;;0.43;;
45103;SDS011;30865;51.288;4.572;2023-04-01T18:33:09;1.45;;;0.57;;
45103;SDS011;30865;51.288;4.572;2023-04-01T18:35:47;0.43;;;0.43;;
45103;SDS011;30865;51.288;4.572;2023-04-01T18:38:28;0.47;;;0.30;;
45103;SDS011;30865;51.288;4.572;2023-04-01T18:43:48;1.27;;;0.55;;
45103;SDS011;30865;51.288;4.572;2023-04-01T18:52:41;0.20;;;0.20;;
45103;SDS011;30865;51.288;4.572;2023-04-01T18:58:20;0.20;;;0.20;;
45103;SDS011;30865;51.288;4.572;2023-04-01T19:04:08;0.82;;;0.30;;
45103;SDS011;30865;51.288;4.572;2023-04-01T19:06:45;0.45;;;0.28;;
45103;SDS011;30865;51.288;4.572;2023-04-01T19:09:20;0.30;;;0.30;;
45103;SDS011;30865;51.288;4.572;2023-04-01T19:25:48;1.20;;;0.35;;
45103;SDS011;30865;51.288;4.572;2023-04-01T19:28:27;1.35;;;0.50;;
45103;SDS011;30865;51.288;4.572;2023-04-01T19:31:51;1.05;;;0.13;;
45103;SDS011;30865;51.288;4.572;2023-04-01T19:36:44;1.08;;;0.57;;
45103;SDS011;30865;51.288;4.572;2023-04-01T19:45:49;1.80;;;0.60;;
45103;SDS011;30865;51.288;4.572;2023-04-01T19:48:08;0.32;;;0.32;;
45103;SDS011;30865;51.288;4.572;2023-04-01T19:53:29;2.97;;;0.73;;
45103;SDS011;30865;51.288;4.572;2023-04-01T19:56:19;1.05;;;0.43;;
45103;SDS011;30865;51.288;4.572;2023-04-01T19:58:58;2.45;;;0.50;;
45103;SDS011;30865;51.288;4.572;2023-04-01T20:01:49;1.15;;;0.52;;
45103;SDS011;30865;51.288;4.572;2023-04-01T20:04:42;1.35;;;0.60;;
45103;SDS011;30865;51.288;4.572;2023-04-01T20:10:16;0.40;;;0.38;;
45103;SDS011;30865;51.288;4.572;2023-04-01T20:13:21;0.30;;;0.30;;
45103;SDS011;30865;51.288;4.572;2023-04-01T20:15:57;0.85;;;0.50;;
45103;SDS011;30865;51.288;4.572;2023-04-01T20:18:34;0.75;;;0.52;;
45103;SDS011;30865;51.288;4.572;2023-04-01T20:21:06;0.50;;;0.35;;
45103;SDS011;30865;51.288;4.572;2023-04-01T20:23:45;0.50;;;0.50;;
45103;SDS011;30865;51.288;4.572;2023-04-01T20:26:37;0.30;;;0.30;;
45103;SDS011;30865;51.288;4.572;2023-04-01T20:40:44;1.70;;;0.30;;
45103;SDS011;30865;51.288;4.572;2023-04-01T20:43:17;1.73;;;0.60;;
45103;SDS011;30865;51.288;4.572;2023-04-01T20:46:15;1.73;;;0.40;;
45103;SDS011;30865;51.288;4.572;2023-04-01T20:48:51;1.27;;;0.45;;
45103;SDS011;30865;51.288;4.572;2023-04-01T20:51:32;1.20;;;0.40;;
45103;SDS011;30865;51.288;4.572;2023-04-01T20:54:20;0.40;;;0.40;;
45103;SDS011;30865;51.288;4.572;2023-04-01T20:57:02;2.83;;;0.50;;
45103;SDS011;30865;51.288;4.572;2023-04-01T20:59:39;1.17;;;0.55;;
45103;SDS011;30865;51.288;4.572;2023-04-01T21:07:34;1.40;;;0.43;;
45103;SDS011;30865;51.288;4.572;2023-04-01T21:16:32;0.93;;;0.50;;
45103;SDS011;30865;51.288;4.572;2023-04-01T21:21:46;0.75;;;0.45;;
45103;SDS011;30865;51.288;4.572;2023-04-01T21:24:36;0.50;;;0.38;;
45103;SDS011;30865;51.288;4.572;2023-04-01T21:27:22;1.85;;;0.40;;
45103;SDS011;30865;51.288;4.572;2023-04-01T21:30:07;2.28;;;0.60;;
45103;SDS011;30865;51.288;4.572;2023-04-01T21:35:55;0.65;;;0.50;;
45103;SDS011;30865;51.288;4.572;2023-04-01T21:38:49;0.75;;;0.50;;
45103;SDS011;30865;51.288;4.572;2023-04-01T21:44:11;2.78;;;0.60;;
45103;SDS011;30865;51.288;4.572;2023-04-01T21:49:40;1.23;;;0.60;;
45103;SDS011;30865;51.288;4.572;2023-04-01T21:52:37;1.75;;;0.70;;
45103;SDS011;30865;51.288;4.572;2023-04-01T21:58:42;0.77;;;0.50;;
45103;SDS011;30865;51.288;4.572;2023-04-01T22:06:49;0.55;;;0.40;;
45103;SDS011;30865;51.288;4.572;2023-04-01T22:09:35;1.20;;;0.52;;
45103;SDS011;30865;51.288;4.572;2023-04-01T22:12:29;0.77;;;0.40;;
45103;SDS011;30865;51.288;4.572;2023-04-01T22:18:07;0.70;;;0.30;;
45103;SDS011;30865;51.288;4.572;2023-04-01T22:20:47;1.35;;;0.52;;
45103;SDS011;30865;51.288;4.572;2023-04-01T22:23:26;0.40;;;0.40;;
45103;SDS011;30865;51.288;4.572;2023-04-01T22:28:52;1.00;;;0.52;;
45103;SDS011;30865;51.288;4.572;2023-04-01T22:31:33;0.73;;;0.30;;
45103;SDS011;30865;51.288;4.572;2023-04-01T22:34:12;0.65;;;0.30;;
45103;SDS011;30865;51.288;4.572;2023-04-01T22:37:09;2.45;;;0.38;;
45103;SDS011;30865;51.288;4.572;2023-04-01T22:42:39;1.20;;;0.32;;
45103;SDS011;30865;51.288;4.572;2023-04-01T22:48:07;0.70;;;0.22;;
45103;SDS011;30865;51.288;4.572;2023-04-01T22:55:45;0.20;;;0.20;;
45103;SDS011;30865;51.288;4.572;2023-04-01T22:58:18;2.65;;;0.25;;
45103;SDS011;30865;51.288;4.572;2023-04-01T23:00:52;0.17;;;0.17;;
45103;SDS011;30865;51.288;4.572;2023-04-01T23:03:28;0.20;;;0.17;;
45103;SDS011;30865;51.288;4.572;2023-04-01T23:06:05;0.10;;;0.10;;
45103;SDS011;30865;51.288;4.572;2023-04-01T23:11:15;0.25;;;0.20;;
45103;SDS011;30865;51.288;4.572;2023-04-01T23:14:08;0.77;;;0.30;;
45103;SDS011;30865;51.288;4.572;2023-04-01T23:19:55;0.30;;;0.25;;
45103;SDS011;30865;51.288;4.572;2023-04-01T23:22:34;0.63;;;0.20;;
45103;SDS011;30865;51.288;4.572;2023-04-01T23:25:16;0.25;;;0.20;;
45103;SDS011;30865;51.288;4.572;2023-04-01T23:27:45;0.32;;;0.13;;
45103;SDS011;30865;51.288;4.572;2023-04-01T23:30:54;0.28;;;0.25;;
45103;SDS011;30865;51.288;4.572;2023-04-01T23:36:10;0.63;;;0.40;;
45103;SDS011;30865;51.288;4.572;2023-04-01T23:38:40;0.20;;;0.20;;
45103;SDS011;30865;51.288;4.572;2023-04-01T23:41:07;0.40;;;0.30;;
45103;SDS011;30865;51.288;4.572;2023-04-01T23:43:42;0.73;;;0.40;;
45103;SDS011;30865;51.288;4.572;2023-04-01T23:46:08;1.15;;;0.22;;
45103;SDS011;30865;51.288;4.572;2023-04-01T23:48:37;0.82;;;0.30;;
45103;SDS011;30865;51.288;4.572;2023-04-01T23:51:12;0.30;;;0.30;;
45103;SDS011;30865;51.288;4.572;2023-04-01T23:54:01;1.38;;;0.80;;
45103;SDS011;30865;51.288;4.572;2023-04-01T23:56:33;0.55;;;0.38;;
45103;SDS011;30865;51.288;4.572;2023-04-01T23:59:04;0.70;;;0.20;;
